Hull, Canada
Current Conditions -  °F | °C
As of 9:00 AM on Monday 26 Jan 2015 (Local Time) from CYOW Reporting Station
Broken Clouds Broken Clouds  
Wind Chill: -21°   Ceiling: 24000
Heat Index: -4°   Visibility: 15mi
Dew Point: -9°   Wind: 10mph
Humidity: 78%   Direction: 30°NNE
Pressure: 30.17"   Gusts: NA
Location:  45.43°N, 75.71°W
Report Text: CYOW 261400Z 03009KT 15SM BKN240 M20/M23 A3017 RMK CI5 SLP229
Loading
Personal Weather Stations






























Interactive Weather Map New forecast layout! Learn more

10-Day Weather Forecast

Advertisements
Track Severe Weather on mobile